Elcho, Wisconsin
Current Conditions -  °F | °C
As of 9:36 PM on Saturday 24 Jan 2015 (Local Time) from KRHI Reporting Station
Overcast Overcast  
Wind Chill: -11°   Ceiling: 3600
Heat Index: -6°   Visibility: 10mi
Dew Point: -9°   Wind: 9mph
Humidity: 78%   Direction: 40°NE
Pressure: 29.7"   Gusts: NA
Location:  45.44°N, 89.18°W
Report Text: KRHI 250336Z AUTO 04008KT 10SM SCT015 OVC036 M06/M09 A2970 RMK AO2 T10561089
Loading
Personal Weather Stations






























Interactive Weather Map New forecast layout! Learn more

10-Day Weather Forecast

Advertisements
Track Severe Weather on mobile